Time;durP1;ratioP1;P1;durP2;ratioP2;P2;SDS_P1;SDS_P2;PMS_P1;PMS_P2;Temp;Humidity;BMP_temperature;BMP_pressure;BME280_temperature;BME280_humidity;BME280_pressure;Samples;Min_cycle;Max_cycle;Signal;HPM_P1;HPM_P2
2021/10/05 00:00:05;;;;;;;3.47;1.43;;;;;;;;;;5047287;28;20189;-77
2021/10/05 00:02:30;;;;;;;3.57;1.50;;;;;;;;;;5046924;28;20605;-77
2021/10/05 00:04:56;;;;;;;4.20;1.73;;;;;;;;;;5045949;28;20194;-76
2021/10/05 00:07:21;;;;;;;6.77;1.67;;;;;;;;;;5045859;28;20181;-76
2021/10/05 00:09:46;;;;;;;6.72;1.75;;;;;;;;;;5052053;28;20252;-76
2021/10/05 00:12:11;;;;;;;3.73;1.33;;;;;;;;;;5069631;28;20208;-76
2021/10/05 00:14:36;;;;;;;3.07;1.70;;;;;;;;;;5051700;28;20216;-76
2021/10/05 00:17:02;;;;;;;4.15;1.42;;;;;;;;;;5065627;28;20265;-76
2021/10/05 00:19:27;;;;;;;8.80;2.43;;;;;;;;;;5068506;28;20172;-76
2021/10/05 00:21:52;;;;;;;6.57;1.50;;;;;;;;;;5067689;28;20219;-75
2021/10/05 00:24:17;;;;;;;5.55;1.75;;;;;;;;;;5071945;28;20259;-75
2021/10/05 00:26:43;;;;;;;5.03;1.47;;;;;;;;;;5073436;28;20177;-76
2021/10/05 00:29:08;;;;;;;3.15;1.30;;;;;;;;;;5073636;28;20177;-76
2021/10/05 00:31:33;;;;;;;4.65;1.85;;;;;;;;;;5060478;28;20204;-76
2021/10/05 00:33:58;;;;;;;2.58;1.38;;;;;;;;;;5069690;28;20179;-76
2021/10/05 00:36:24;;;;;;;5.82;1.40;;;;;;;;;;5071645;28;20567;-77
2021/10/05 00:38:49;;;;;;;2.00;1.20;;;;;;;;;;5070439;28;20177;-76
2021/10/05 00:41:14;;;;;;;5.22;1.50;;;;;;;;;;5069622;28;20236;-76
2021/10/05 00:43:39;;;;;;;4.97;1.85;;;;;;;;;;5072941;28;20276;-76
2021/10/05 00:46:04;;;;;;;4.73;1.40;;;;;;;;;;5071433;28;20231;-76
2021/10/05 00:48:30;;;;;;;4.25;1.45;;;;;;;;;;5072232;28;20256;-77
2021/10/05 00:50:55;;;;;;;2.60;1.17;;;;;;;;;;5072065;28;20201;-76
2021/10/05 00:53:20;;;;;;;4.05;1.17;;;;;;;;;;5072038;28;20173;-76
2021/10/05 00:55:46;;;;;;;2.42;1.02;;;;;;;;;;5073877;28;20546;-77
2021/10/05 00:58:11;;;;;;;4.05;2.10;;;;;;;;;;5073576;28;20176;-76
2021/10/05 01:00:39;;;;;;;3.53;1.50;;;;;;;;;;5071895;28;20195;-77
2021/10/05 01:03:04;;;;;;;4.10;1.17;;;;;;;;;;5071855;28;20189;-76
2021/10/05 01:05:30;;;;;;;6.40;1.43;;;;;;;;;;5070764;28;20589;-76
2021/10/05 01:07:55;;;;;;;3.37;1.40;;;;;;;;;;5068300;28;20187;-75
2021/10/05 01:10:20;;;;;;;3.70;1.63;;;;;;;;;;5069990;28;20230;-76
2021/10/05 01:12:49;;;;;;;2.57;1.27;;;;;;;;;;5072004;28;20669;-75
2021/10/05 01:15:15;;;;;;;2.00;1.33;;;;;;;;;;5068991;28;20169;-76
2021/10/05 01:17:40;;;;;;;6.37;1.43;;;;;;;;;;5072457;28;20555;-76
2021/10/05 01:20:06;;;;;;;3.03;1.10;;;;;;;;;;5071945;28;20264;-76
2021/10/05 01:22:32;;;;;;;5.10;2.00;;;;;;;;;;5070080;28;20197;-76
2021/10/05 01:24:57;;;;;;;4.10;1.27;;;;;;;;;;5068328;28;20540;-76
2021/10/05 01:27:22;;;;;;;4.60;1.40;;;;;;;;;;5072872;28;20276;-75
2021/10/05 01:29:47;;;;;;;2.03;1.40;;;;;;;;;;5054107;28;20173;-76
2021/10/05 01:32:13;;;;;;;6.23;1.53;;;;;;;;;;5071093;28;20738;-76
2021/10/05 01:34:38;;;;;;;4.63;1.70;;;;;;;;;;5072378;28;20162;-75
2021/10/05 01:37:03;;;;;;;2.17;1.40;;;;;;;;;;5071835;28;20195;-74
2021/10/05 01:39:30;;;;;;;4.83;1.60;;;;;;;;;;5070507;28;20256;-74
2021/10/05 01:41:56;;;;;;;4.40;1.57;;;;;;;;;;5081495;22;20246;-71
2021/10/05 01:44:22;;;;;;;2.03;1.23;;;;;;;;;;5067855;28;20186;-72
2021/10/05 01:46:49;;;;;;;4.17;1.80;;;;;;;;;;5065719;28;20680;-71
2021/10/05 01:49:14;;;;;;;7.83;2.10;;;;;;;;;;5065319;28;20185;-72
2021/10/05 01:51:40;;;;;;;5.00;1.70;;;;;;;;;;5059560;28;20608;-72
2021/10/05 01:54:05;;;;;;;3.70;1.30;;;;;;;;;;5069858;28;20267;-72
2021/10/05 01:56:30;;;;;;;2.80;1.43;;;;;;;;;;5053556;28;20177;-72
2021/10/05 01:58:55;;;;;;;4.43;1.10;;;;;;;;;;5067772;28;20219;-72
2021/10/05 02:01:21;;;;;;;2.90;1.17;;;;;;;;;;5070575;28;20196;-72
2021/10/05 02:03:46;;;;;;;6.30;1.40;;;;;;;;;;5071345;28;20310;-72
2021/10/05 02:06:11;;;;;;;5.57;1.30;;;;;;;;;;5071523;28;20602;-71
2021/10/05 02:08:36;;;;;;;4.17;1.37;;;;;;;;;;5072172;28;20251;-72
2021/10/05 02:11:01;;;;;;;1.73;1.00;;;;;;;;;;5049302;28;20232;-72
2021/10/05 02:13:27;;;;;;;3.07;1.03;;;;;;;;;;5070924;28;20351;-72
2021/10/05 02:15:52;;;;;;;1.87;1.03;;;;;;;;;;5070477;28;20535;-72
2021/10/05 02:18:17;;;;;;;3.87;1.40;;;;;;;;;;5070579;28;20650;-72
2021/10/05 02:20:42;;;;;;;4.10;1.30;;;;;;;;;;5052457;28;20173;-72
2021/10/05 02:23:07;;;;;;;6.67;1.50;;;;;;;;;;5070677;28;20173;-72
2021/10/05 02:25:33;;;;;;;2.67;1.63;;;;;;;;;;5067416;28;20177;-72
2021/10/05 02:27:58;;;;;;;4.70;1.63;;;;;;;;;;5070136;28;20173;-72
2021/10/05 02:30:23;;;;;;;2.53;1.10;;;;;;;;;;5068222;28;20256;-72
2021/10/05 02:32:48;;;;;;;3.00;1.13;;;;;;;;;;5066995;28;20199;-72
2021/10/05 02:35:13;;;;;;;6.43;1.40;;;;;;;;;;5066997;28;20185;-71
2021/10/05 02:37:39;;;;;;;2.73;2.20;;;;;;;;;;5068385;28;20545;-72
2021/10/05 02:40:06;;;;;;;2.87;1.10;;;;;;;;;;5068315;28;20177;-72
2021/10/05 02:42:31;;;;;;;6.10;1.40;;;;;;;;;;5070702;28;20682;-74
2021/10/05 02:44:56;;;;;;;4.27;1.57;;;;;;;;;;5069958;28;20183;-73
2021/10/05 02:47:22;;;;;;;4.83;2.43;;;;;;;;;;5070050;28;20593;-73
2021/10/05 02:49:48;;;;;;;3.20;1.03;;;;;;;;;;5069068;28;20260;-73
2021/10/05 02:52:16;;;;;;;4.47;1.50;;;;;;;;;;5070336;28;20295;-73
2021/10/05 02:54:41;;;;;;;2.50;1.30;;;;;;;;;;5071016;28;20199;-72
2021/10/05 02:57:07;;;;;;;2.27;1.30;;;;;;;;;;5070687;28;20185;-73
2021/10/05 02:59:33;;;;;;;4.53;1.30;;;;;;;;;;5069010;28;20196;-72
2021/10/05 03:01:58;;;;;;;5.47;1.80;;;;;;;;;;5051682;28;20197;-72
2021/10/05 03:04:23;;;;;;;4.03;1.30;;;;;;;;;;5070131;28;20184;-72
2021/10/05 03:06:48;;;;;;;6.63;1.23;;;;;;;;;;5066471;28;20608;-72
2021/10/05 03:09:14;;;;;;;4.87;1.40;;;;;;;;;;5069589;28;20187;-73
2021/10/05 03:11:39;;;;;;;2.17;1.13;;;;;;;;;;5050641;28;20201;-72
2021/10/05 03:14:04;;;;;;;2.83;1.40;;;;;;;;;;5070162;28;20257;-72
2021/10/05 03:16:29;;;;;;;2.67;1.50;;;;;;;;;;5069551;28;20185;-73
2021/10/05 03:18:55;;;;;;;3.77;1.30;;;;;;;;;;5069608;28;20172;-73
2021/10/05 03:21:20;;;;;;;4.27;1.43;;;;;;;;;;5070582;28;20463;-75
2021/10/05 03:23:45;;;;;;;4.50;1.50;;;;;;;;;;5042891;28;20187;-72
2021/10/05 03:26:10;;;;;;;2.43;1.20;;;;;;;;;;5069201;28;20226;-73
2021/10/05 03:28:36;;;;;;;4.70;1.83;;;;;;;;;;5062409;28;20196;-73
2021/10/05 03:31:01;;;;;;;3.70;1.50;;;;;;;;;;5070183;28;20309;-72
2021/10/05 03:33:26;;;;;;;2.27;1.30;;;;;;;;;;5067923;28;20172;-72
2021/10/05 03:35:51;;;;;;;3.37;1.63;;;;;;;;;;5050913;28;20180;-72
2021/10/05 03:38:17;;;;;;;3.17;1.40;;;;;;;;;;5061475;28;20274;-72
2021/10/05 03:40:42;;;;;;;4.33;1.23;;;;;;;;;;5064680;28;20646;-72
2021/10/05 03:43:07;;;;;;;4.77;1.60;;;;;;;;;;5069077;28;20199;-72
2021/10/05 03:45:33;;;;;;;5.27;1.20;;;;;;;;;;5069784;28;20172;-72
2021/10/05 03:47:58;;;;;;;4.33;1.70;;;;;;;;;;5068075;28;20183;-72
2021/10/05 03:50:23;;;;;;;3.47;1.40;;;;;;;;;;5052054;28;20192;-72
2021/10/05 03:52:49;;;;;;;2.77;1.40;;;;;;;;;;5069750;28;20191;-72
2021/10/05 03:55:14;;;;;;;2.87;1.30;;;;;;;;;;5067969;28;20184;-72
2021/10/05 03:57:39;;;;;;;3.17;1.50;;;;;;;;;;5069161;28;20257;-72
2021/10/05 04:00:05;;;;;;;5.60;1.93;;;;;;;;;;5074013;28;20177;-72
2021/10/05 04:02:30;;;;;;;1.83;1.00;;;;;;;;;;5054083;28;20192;-72
2021/10/05 04:04:55;;;;;;;2.20;1.20;;;;;;;;;;5074452;28;20704;-73
2021/10/05 04:07:20;;;;;;;3.47;1.33;;;;;;;;;;5073174;28;20181;-72
2021/10/05 04:09:45;;;;;;;5.70;1.30;;;;;;;;;;5071026;28;20534;-72
2021/10/05 04:12:11;;;;;;;1.57;1.20;;;;;;;;;;5073677;28;20216;-73
2021/10/05 04:14:36;;;;;;;3.80;1.40;;;;;;;;;;5073195;28;20212;-72
2021/10/05 04:17:02;;;;;;;2.83;1.70;;;;;;;;;;5071266;28;20367;-72
2021/10/05 04:19:27;;;;;;;5.10;1.20;;;;;;;;;;5073865;28;20634;-72
2021/10/05 04:21:52;;;;;;;3.53;1.20;;;;;;;;;;5072704;28;20195;-72
2021/10/05 04:24:18;;;;;;;1.70;1.00;;;;;;;;;;5055168;28;20630;-72
2021/10/05 04:26:43;;;;;;;2.50;1.80;;;;;;;;;;5071383;28;20203;-72
2021/10/05 04:29:08;;;;;;;3.23;1.40;;;;;;;;;;5073856;28;20192;-72
2021/10/05 04:31:36;;;;;;;3.23;1.33;;;;;;;;;;5071957;28;20205;-72
2021/10/05 04:34:01;;;;;;;3.73;1.40;;;;;;;;;;5070304;28;20574;-72
2021/10/05 04:36:26;;;;;;;8.13;1.60;;;;;;;;;;5073045;28;20184;-73
2021/10/05 04:38:52;;;;;;;4.30;1.50;;;;;;;;;;5072842;28;20177;-72
2021/10/05 04:41:17;;;;;;;1.80;1.30;;;;;;;;;;5071909;28;20660;-73
2021/10/05 04:43:42;;;;;;;1.97;1.23;;;;;;;;;;5073638;28;20181;-73
2021/10/05 04:46:07;;;;;;;3.40;1.40;;;;;;;;;;5072182;28;20181;-73
2021/10/05 04:48:32;;;;;;;3.17;1.30;;;;;;;;;;5070289;28;20196;-72
2021/10/05 04:50:57;;;;;;;4.40;1.53;;;;;;;;;;5072239;28;20578;-73
2021/10/05 04:53:23;;;;;;;2.63;1.40;;;;;;;;;;5050005;28;20238;-73
2021/10/05 04:55:48;;;;;;;2.67;1.27;;;;;;;;;;5067653;28;20184;-73
2021/10/05 04:58:13;;;;;;;1.90;1.20;;;;;;;;;;5074547;28;21034;-72
2021/10/05 05:00:39;;;;;;;3.80;1.23;;;;;;;;;;5073883;28;20669;-72
2021/10/05 05:03:04;;;;;;;2.80;1.40;;;;;;;;;;5072348;28;20654;-72
2021/10/05 05:05:29;;;;;;;2.30;0.97;;;;;;;;;;5072229;28;20169;-73
2021/10/05 05:07:58;;;;;;;1.63;1.17;;;;;;;;;;5073192;28;20554;-72
2021/10/05 05:10:23;;;;;;;1.87;1.27;;;;;;;;;;5053143;28;20221;-73
2021/10/05 05:12:48;;;;;;;2.27;1.10;;;;;;;;;;5072127;28;20279;-72
2021/10/05 05:15:15;;;;;;;3.67;1.20;;;;;;;;;;5071266;28;20188;-73
2021/10/05 05:17:40;;;;;;;2.17;1.00;;;;;;;;;;5072519;28;20600;-73
2021/10/05 05:20:05;;;;;;;2.63;0.93;;;;;;;;;;5070604;28;20169;-73
2021/10/05 05:22:30;;;;;;;3.80;1.20;;;;;;;;;;5071794;28;20211;-73
2021/10/05 05:24:56;;;;;;;3.63;1.10;;;;;;;;;;5072569;28;20200;-73
2021/10/05 05:27:22;;;;;;;2.60;1.53;;;;;;;;;;5063176;28;20177;-72
2021/10/05 05:29:47;;;;;;;2.47;1.67;;;;;;;;;;5051641;28;20685;-73
2021/10/05 05:32:13;;;;;;;6.50;1.30;;;;;;;;;;5049279;28;20213;-73
2021/10/05 05:34:39;;;;;;;3.07;1.03;;;;;;;;;;5071829;28;20195;-72
2021/10/05 05:37:06;;;;;;;5.60;1.33;;;;;;;;;;5071712;28;20189;-72
2021/10/05 05:39:31;;;;;;;2.60;1.30;;;;;;;;;;5052930;28;20177;-72
2021/10/05 05:41:56;;;;;;;2.70;1.20;;;;;;;;;;5070246;28;20266;-73
2021/10/05 05:44:22;;;;;;;3.03;1.30;;;;;;;;;;5070433;28;20268;-73
2021/10/05 05:46:47;;;;;;;2.17;1.30;;;;;;;;;;5052511;28;20211;-72
2021/10/05 05:49:13;;;;;;;1.80;1.10;;;;;;;;;;5068761;28;20234;-72
2021/10/05 05:51:38;;;;;;;1.83;0.93;;;;;;;;;;5071604;28;20254;-72
2021/10/05 05:54:03;;;;;;;2.90;1.10;;;;;;;;;;5070828;28;20173;-72
2021/10/05 05:56:29;;;;;;;4.60;1.10;;;;;;;;;;5070741;28;20236;-72
2021/10/05 05:58:55;;;;;;;2.87;1.20;;;;;;;;;;5050151;28;20251;-72
2021/10/05 06:01:21;;;;;;;2.60;1.30;;;;;;;;;;5071157;28;20275;-72
2021/10/05 06:03:49;;;;;;;3.47;1.13;;;;;;;;;;5051549;28;20260;-72
2021/10/05 06:06:15;;;;;;;4.20;1.93;;;;;;;;;;5063026;28;20264;-72
2021/10/05 06:08:40;;;;;;;5.20;1.20;;;;;;;;;;5068788;28;20216;-72
2021/10/05 06:11:06;;;;;;;3.60;0.97;;;;;;;;;;5066826;28;20431;-72
2021/10/05 06:13:31;;;;;;;3.87;1.27;;;;;;;;;;5068445;28;20181;-73
2021/10/05 06:15:56;;;;;;;2.93;1.00;;;;;;;;;;5070664;28;20176;-72
2021/10/05 06:18:22;;;;;;;1.87;1.10;;;;;;;;;;5066414;28;20180;-72
2021/10/05 06:20:47;;;;;;;2.77;1.60;;;;;;;;;;5067351;28;20192;-72
2021/10/05 06:23:12;;;;;;;4.67;1.30;;;;;;;;;;5071538;28;20622;-72
2021/10/05 06:25:40;;;;;;;4.07;1.63;;;;;;;;;;5054412;28;20549;-72
2021/10/05 06:28:05;;;;;;;2.77;1.23;;;;;;;;;;5064389;28;20184;-72
2021/10/05 06:30:31;;;;;;;1.20;1.10;;;;;;;;;;5069468;28;20169;-72
2021/10/05 06:32:56;;;;;;;2.83;1.10;;;;;;;;;;5068111;28;20260;-72
2021/10/05 06:35:24;;;;;;;1.33;0.90;;;;;;;;;;5069306;28;20180;-72
2021/10/05 06:37:51;;;;;;;3.83;1.00;;;;;;;;;;5070607;28;20483;-72
2021/10/05 06:40:16;;;;;;;3.27;1.40;;;;;;;;;;5066996;28;20222;-72
2021/10/05 06:42:41;;;;;;;1.30;0.93;;;;;;;;;;5068319;28;20208;-72
2021/10/05 06:45:07;;;;;;;2.13;1.30;;;;;;;;;;5068026;28;20169;-72
2021/10/05 06:47:32;;;;;;;3.83;1.70;;;;;;;;;;5068831;28;20199;-72
2021/10/05 06:49:58;;;;;;;5.38;1.00;;;;;;;;;;5066523;28;20250;-72
2021/10/05 06:52:23;;;;;;;1.50;1.00;;;;;;;;;;5070800;28;20204;-72
2021/10/05 06:54:48;;;;;;;2.63;1.37;;;;;;;;;;5064006;28;20196;-72
2021/10/05 06:57:13;;;;;;;1.85;0.82;;;;;;;;;;5060463;28;20181;-72
2021/10/05 06:59:39;;;;;;;2.00;1.00;;;;;;;;;;5067631;28;20189;-72
2021/10/05 07:02:04;;;;;;;2.33;1.10;;;;;;;;;;5068553;28;20200;-72
2021/10/05 07:04:29;;;;;;;3.13;0.93;;;;;;;;;;5070442;28;20181;-72
2021/10/05 07:06:54;;;;;;;1.65;1.10;;;;;;;;;;5065179;28;20180;-72
2021/10/05 07:09:19;;;;;;;1.50;1.00;;;;;;;;;;5048319;28;20642;-72
2021/10/05 07:11:46;;;;;;;1.63;1.00;;;;;;;;;;5061688;28;20208;-72
2021/10/05 07:14:11;;;;;;;3.58;1.60;;;;;;;;;;5066375;28;20195;-72
2021/10/05 07:16:37;;;;;;;1.87;0.93;;;;;;;;;;5069734;28;20646;-72
2021/10/05 07:19:02;;;;;;;1.43;0.80;;;;;;;;;;5066230;28;20517;-72
2021/10/05 07:21:27;;;;;;;1.67;0.88;;;;;;;;;;5069995;28;20472;-71
2021/10/05 07:23:52;;;;;;;3.35;1.10;;;;;;;;;;5065471;28;20182;-72
2021/10/05 07:26:18;;;;;;;2.30;1.05;;;;;;;;;;5070232;28;20177;-72
2021/10/05 07:28:43;;;;;;;4.07;0.80;;;;;;;;;;5048416;28;20169;-72
2021/10/05 07:31:08;;;;;;;2.70;1.50;;;;;;;;;;5061984;28;20282;-72
2021/10/05 07:33:34;;;;;;;2.97;1.27;;;;;;;;;;5058829;28;20177;-73
2021/10/05 07:35:59;;;;;;;2.75;1.05;;;;;;;;;;5064302;28;20367;-73
2021/10/05 07:38:24;;;;;;;2.28;1.10;;;;;;;;;;5046146;28;20184;-72
2021/10/05 07:43:17;;;;;;;2.83;1.20;;;;;;;;;;5027232;28;20483;-76
2021/10/05 07:45:44;;;;;;;1.08;0.88;;;;;;;;;;5032898;28;20832;-77
2021/10/05 07:48:09;;;;;;;2.58;1.10;;;;;;;;;;5045334;28;20201;-77
2021/10/05 07:50:35;;;;;;;3.08;1.33;;;;;;;;;;5038973;28;20177;-77
2021/10/05 07:53:01;;;;;;;3.13;1.00;;;;;;;;;;5044771;28;20480;-77
2021/10/05 07:55:28;;;;;;;2.15;1.25;;;;;;;;;;5049737;28;20193;-77
2021/10/05 07:57:54;;;;;;;3.75;0.90;;;;;;;;;;5050547;28;20700;-76
2021/10/05 08:00:19;;;;;;;4.80;1.67;;;;;;;;;;5072387;28;20174;-77
2021/10/05 08:02:45;;;;;;;3.70;1.05;;;;;;;;;;5050445;28;20193;-76
2021/10/05 08:05:11;;;;;;;6.18;1.08;;;;;;;;;;5052699;28;20263;-76
2021/10/05 08:07:36;;;;;;;5.03;1.50;;;;;;;;;;5048831;28;20203;-77
2021/10/05 08:10:02;;;;;;;2.55;1.20;;;;;;;;;;5049772;28;20169;-77
2021/10/05 08:12:27;;;;;;;3.47;0.80;;;;;;;;;;5048729;28;20300;-76
2021/10/05 08:14:52;;;;;;;1.23;0.80;;;;;;;;;;5051051;28;20201;-77
2021/10/05 08:17:18;;;;;;;1.77;0.73;;;;;;;;;;5048893;28;20189;-76
2021/10/05 08:19:43;;;;;;;1.40;0.73;;;;;;;;;;5050761;28;20174;-76
2021/10/05 08:22:09;;;;;;;2.25;1.08;;;;;;;;;;5049249;28;20214;-77
2021/10/05 08:24:35;;;;;;;4.40;0.65;;;;;;;;;;5049270;28;20170;-77
2021/10/05 08:27:00;;;;;;;3.00;0.73;;;;;;;;;;5046925;28;20173;-76
2021/10/05 08:29:25;;;;;;;2.72;1.70;;;;;;;;;;5050958;28;20178;-77
2021/10/05 08:31:51;;;;;;;3.03;1.50;;;;;;;;;;5048078;28;20202;-77
2021/10/05 08:34:17;;;;;;;3.95;1.20;;;;;;;;;;5046767;28;20521;-77
2021/10/05 08:36:42;;;;;;;1.38;0.90;;;;;;;;;;5044695;28;20177;-76
2021/10/05 08:39:10;;;;;;;1.98;0.85;;;;;;;;;;5049026;28;20706;-77
2021/10/05 08:41:36;;;;;;;4.70;0.75;;;;;;;;;;5054502;28;20730;-76
2021/10/05 08:44:01;;;;;;;2.78;0.80;;;;;;;;;;5049271;28;20178;-77
2021/10/05 08:46:27;;;;;;;3.10;0.80;;;;;;;;;;5053040;28;20669;-77
2021/10/05 08:48:52;;;;;;;1.95;0.80;;;;;;;;;;5056785;28;20177;-76
2021/10/05 08:51:17;;;;;;;3.33;0.82;;;;;;;;;;5055920;28;20621;-77
2021/10/05 08:53:43;;;;;;;3.05;1.10;;;;;;;;;;5055087;28;20630;-77
2021/10/05 08:56:09;;;;;;;3.03;1.10;;;;;;;;;;5053080;28;20186;-77
2021/10/05 08:58:34;;;;;;;3.65;0.88;;;;;;;;;;5053444;28;20407;-74
2021/10/05 09:01:07;;;;;;;5.20;1.25;;;;;;;;;;5050346;28;20682;-77
2021/10/05 09:03:32;;;;;;;3.08;1.00;;;;;;;;;;5053784;28;20178;-74
2021/10/05 09:06:07;;;;;;;3.90;1.10;;;;;;;;;;5051325;28;20180;-75
2021/10/05 09:08:33;;;;;;;3.53;1.30;;;;;;;;;;5046586;28;20178;-75
2021/10/05 09:11:02;;;;;;;3.97;1.35;;;;;;;;;;5050032;28;20205;-76
2021/10/05 09:13:31;;;;;;;1.25;0.93;;;;;;;;;;5051547;28;20272;-75
2021/10/05 09:15:56;;;;;;;3.90;1.40;;;;;;;;;;5050008;28;20360;-74
2021/10/05 09:18:21;;;;;;;2.73;1.20;;;;;;;;;;5050628;28;20549;-75
2021/10/05 09:20:46;;;;;;;5.03;1.00;;;;;;;;;;5056655;28;20467;-75
2021/10/05 09:23:12;;;;;;;3.67;1.30;;;;;;;;;;5052998;28;20425;-76
2021/10/05 09:25:41;;;;;;;2.72;1.00;;;;;;;;;;5054410;28;20416;-77
2021/10/05 09:28:13;;;;;;;2.83;1.10;;;;;;;;;;5053112;28;20241;-75
2021/10/05 09:30:38;;;;;;;2.35;1.00;;;;;;;;;;5046951;28;20182;-74
2021/10/05 09:33:04;;;;;;;1.33;0.70;;;;;;;;;;5055317;28;20196;-74
2021/10/05 09:35:43;;;;;;;6.00;0.80;;;;;;;;;;5051678;28;20642;-75
2021/10/05 09:38:11;;;;;;;1.38;0.90;;;;;;;;;;5053673;28;20177;-75
2021/10/05 09:40:37;;;;;;;4.65;1.00;;;;;;;;;;5044929;28;20306;-75
2021/10/05 09:43:02;;;;;;;2.88;1.08;;;;;;;;;;5046148;28;20251;-75
2021/10/05 09:45:29;;;;;;;4.05;1.10;;;;;;;;;;5052704;28;20701;-75
2021/10/05 09:47:56;;;;;;;2.20;0.80;;;;;;;;;;5049804;28;20193;-76
2021/10/05 09:50:24;;;;;;;4.03;1.38;;;;;;;;;;5049457;28;20177;-74
2021/10/05 09:52:51;;;;;;;3.28;1.27;;;;;;;;;;5051448;28;20793;-74
2021/10/05 09:55:17;;;;;;;2.53;0.75;;;;;;;;;;5051728;28;20205;-73
2021/10/05 09:57:43;;;;;;;1.55;0.70;;;;;;;;;;5059189;28;20177;-74
2021/10/05 10:00:09;;;;;;;1.20;0.75;;;;;;;;;;5055442;28;20176;-74
2021/10/05 10:02:36;;;;;;;1.83;0.82;;;;;;;;;;5052489;28;20717;-74
2021/10/05 10:05:01;;;;;;;3.60;0.90;;;;;;;;;;5052563;28;20182;-75
2021/10/05 10:07:27;;;;;;;2.33;0.85;;;;;;;;;;5051517;28;20185;-75
2021/10/05 10:09:53;;;;;;;6.00;0.85;;;;;;;;;;5050893;28;20178;-75
2021/10/05 10:12:18;;;;;;;4.43;0.80;;;;;;;;;;5051868;28;20205;-74
2021/10/05 10:14:43;;;;;;;4.78;1.10;;;;;;;;;;5051053;28;20190;-75
2021/10/05 10:17:08;;;;;;;3.43;0.80;;;;;;;;;;5053257;28;20182;-75
2021/10/05 10:19:36;;;;;;;3.83;0.77;;;;;;;;;;5054002;28;20830;-76
2021/10/05 10:22:06;;;;;;;2.45;0.73;;;;;;;;;;5051298;28;21097;-74
2021/10/05 10:24:42;;;;;;;3.53;0.60;;;;;;;;;;5050827;28;20212;-75
2021/10/05 10:27:07;;;;;;;2.20;0.70;;;;;;;;;;5052779;28;20184;-75
2021/10/05 10:29:32;;;;;;;2.38;0.60;;;;;;;;;;5048455;28;20173;-75
2021/10/05 10:32:07;;;;;;;2.67;1.20;;;;;;;;;;5045921;28;20263;-75
2021/10/05 10:34:32;;;;;;;4.00;0.80;;;;;;;;;;5049675;28;20961;-75
2021/10/05 10:37:08;;;;;;;3.50;1.00;;;;;;;;;;5046418;28;20216;-75
2021/10/05 10:39:38;;;;;;;3.67;0.90;;;;;;;;;;5047942;28;20433;-75
2021/10/05 10:42:04;;;;;;;2.05;0.70;;;;;;;;;;5049256;28;20201;-75
2021/10/05 10:44:37;;;;;;;2.63;0.70;;;;;;;;;;5053375;28;20173;-75
2021/10/05 10:47:10;;;;;;;2.00;0.93;;;;;;;;;;5047546;28;20197;-75
2021/10/05 10:49:35;;;;;;;1.58;0.70;;;;;;;;;;5049845;28;20209;-75
2021/10/05 10:52:01;;;;;;;5.50;1.20;;;;;;;;;;5052597;28;20652;-75
2021/10/05 10:54:26;;;;;;;2.50;0.90;;;;;;;;;;5052562;28;20177;-74
2021/10/05 10:57:02;;;;;;;3.72;1.00;;;;;;;;;;5059573;28;20923;-75
2021/10/05 10:59:28;;;;;;;2.00;0.90;;;;;;;;;;5050334;28;20188;-76
2021/10/05 11:01:53;;;;;;;1.60;0.75;;;;;;;;;;5049495;28;20710;-75
2021/10/05 11:04:19;;;;;;;2.03;0.80;;;;;;;;;;5051149;28;20177;-75
2021/10/05 11:06:50;;;;;;;3.50;0.90;;;;;;;;;;5047411;28;20670;-76
2021/10/05 11:09:15;;;;;;;1.95;1.00;;;;;;;;;;5049752;28;20315;-75
2021/10/05 11:11:42;;;;;;;1.88;0.77;;;;;;;;;;5047624;28;20284;-74
2021/10/05 11:14:12;;;;;;;1.35;1.00;;;;;;;;;;5049660;28;20189;-75
2021/10/05 11:16:38;;;;;;;2.30;0.60;;;;;;;;;;5049173;28;20655;-74
2021/10/05 11:19:04;;;;;;;2.03;0.65;;;;;;;;;;5050140;28;20217;-75
2021/10/05 11:21:34;;;;;;;2.10;0.90;;;;;;;;;;5048805;28;20578;-74
2021/10/05 11:23:59;;;;;;;2.95;1.05;;;;;;;;;;5067343;28;20224;-76
2021/10/05 11:26:35;;;;;;;1.83;0.90;;;;;;;;;;5052737;28;20647;-74
2021/10/05 11:29:02;;;;;;;1.52;0.60;;;;;;;;;;5048628;28;20646;-76
2021/10/05 11:31:28;;;;;;;3.92;1.10;;;;;;;;;;5048679;28;20212;-75
2021/10/05 11:34:02;;;;;;;1.75;0.85;;;;;;;;;;5043057;28;20178;-74
2021/10/05 11:36:27;;;;;;;2.00;0.98;;;;;;;;;;5044623;28;20181;-74
2021/10/05 11:38:52;;;;;;;1.80;0.93;;;;;;;;;;5049875;28;20180;-74
2021/10/05 11:41:18;;;;;;;3.88;1.15;;;;;;;;;;5052039;28;20205;-73
2021/10/05 11:43:48;;;;;;;2.20;0.90;;;;;;;;;;5051746;28;20542;-74
2021/10/05 11:46:15;;;;;;;3.40;0.75;;;;;;;;;;5048382;28;20643;-75
2021/10/05 11:48:42;;;;;;;2.72;0.82;;;;;;;;;;5045333;28;20192;-75
2021/10/05 11:51:08;;;;;;;1.33;0.80;;;;;;;;;;5046280;28;20686;-73
2021/10/05 11:53:37;;;;;;;2.85;1.10;;;;;;;;;;5050996;28;20223;-74
2021/10/05 11:56:03;;;;;;;8.30;2.03;;;;;;;;;;5047936;28;20189;-74
2021/10/05 11:58:38;;;;;;;1.42;0.73;;;;;;;;;;5047003;28;20296;-77
2021/10/05 12:01:11;;;;;;;2.13;0.80;;;;;;;;;;5049104;28;20197;-77
2021/10/05 12:03:36;;;;;;;2.58;0.77;;;;;;;;;;5043619;28;20213;-76
2021/10/05 12:06:01;;;;;;;1.70;0.97;;;;;;;;;;5049609;28;20178;-74
2021/10/05 12:08:26;;;;;;;2.33;0.82;;;;;;;;;;5051684;28;20457;-76
2021/10/05 12:10:54;;;;;;;2.30;0.82;;;;;;;;;;5051779;28;20192;-73
2021/10/05 12:13:19;;;;;;;2.55;0.73;;;;;;;;;;5053851;28;20202;-75
2021/10/05 12:15:45;;;;;;;5.97;0.80;;;;;;;;;;5047490;28;20721;-75
2021/10/05 12:18:12;;;;;;;6.65;1.10;;;;;;;;;;5051628;28;20265;-75
2021/10/05 12:20:37;;;;;;;5.15;1.20;;;;;;;;;;5055024;28;20264;-74
2021/10/05 12:23:07;;;;;;;1.63;0.80;;;;;;;;;;5060458;28;20221;-77
2021/10/05 12:25:37;;;;;;;6.82;1.38;;;;;;;;;;5058487;28;20605;-74
2021/10/05 12:28:05;;;;;;;4.85;1.30;;;;;;;;;;5059280;28;20205;-75
2021/10/05 12:30:31;;;;;;;6.10;2.20;;;;;;;;;;5063620;28;20287;-76
2021/10/05 12:32:58;;;;;;;1.52;0.90;;;;;;;;;;5057738;28;20201;-76
2021/10/05 12:35:23;;;;;;;3.40;1.17;;;;;;;;;;5058080;28;20249;-75
2021/10/05 12:38:08;;;;;;;2.43;1.20;;;;;;;;;;5046463;28;27911;-75
2021/10/05 12:40:45;;;;;;;4.30;1.67;;;;;;;;;;5059876;28;20895;-77
2021/10/05 12:43:11;;;;;;;7.57;1.38;;;;;;;;;;5055127;28;20319;-77
2021/10/05 12:45:39;;;;;;;3.92;1.33;;;;;;;;;;5053819;28;20201;-77
2021/10/05 12:48:05;;;;;;;4.80;1.30;;;;;;;;;;5052525;28;20181;-78
2021/10/05 12:50:32;;;;;;;3.05;1.08;;;;;;;;;;5051527;28;20200;-77
2021/10/05 12:52:59;;;;;;;1.88;1.05;;;;;;;;;;5053303;28;20217;-77
2021/10/05 12:55:28;;;;;;;2.38;0.80;;;;;;;;;;5052823;28;20186;-76
2021/10/05 12:57:54;;;;;;;4.18;1.00;;;;;;;;;;5056346;28;20190;-77
2021/10/05 13:00:19;;;;;;;3.83;1.30;;;;;;;;;;5044105;28;20224;-77
2021/10/05 13:02:45;;;;;;;3.38;1.10;;;;;;;;;;5055262;28;20229;-78
2021/10/05 13:05:11;;;;;;;2.13;1.17;;;;;;;;;;5050967;28;20558;-77
2021/10/05 13:07:36;;;;;;;2.53;1.30;;;;;;;;;;5054969;28;20177;-79
2021/10/05 13:10:01;;;;;;;2.15;1.48;;;;;;;;;;5053210;28;20281;-77
2021/10/05 13:12:26;;;;;;;5.07;1.88;;;;;;;;;;5054104;28;20300;-78
2021/10/05 13:14:51;;;;;;;2.90;1.43;;;;;;;;;;5069370;28;20533;-78
2021/10/05 13:17:17;;;;;;;3.75;1.52;;;;;;;;;;5051661;28;20407;-79
2021/10/05 13:19:42;;;;;;;1.25;1.05;;;;;;;;;;5050858;28;20229;-78
2021/10/05 13:22:07;;;;;;;2.80;1.30;;;;;;;;;;5052655;28;20778;-78
2021/10/05 13:24:32;;;;;;;1.88;1.30;;;;;;;;;;5060090;28;20457;-78
2021/10/05 13:26:57;;;;;;;2.58;1.58;;;;;;;;;;5050669;28;20208;-77
2021/10/05 13:29:23;;;;;;;4.10;1.67;;;;;;;;;;5054280;28;20246;-79
2021/10/05 13:31:48;;;;;;;5.05;1.70;;;;;;;;;;5049972;28;20216;-78
2021/10/05 13:34:16;;;;;;;5.13;1.50;;;;;;;;;;5052345;28;20238;-79
2021/10/05 13:36:41;;;;;;;3.55;1.45;;;;;;;;;;5048483;28;20227;-77
2021/10/05 13:39:06;;;;;;;4.93;1.55;;;;;;;;;;5049222;28;20182;-78
2021/10/05 13:41:32;;;;;;;2.63;1.87;;;;;;;;;;5066663;22;20958;-80
2021/10/05 13:43:57;;;;;;;2.08;1.42;;;;;;;;;;5077664;28;20425;-80
2021/10/05 13:46:23;;;;;;;2.08;1.63;;;;;;;;;;5074248;28;20173;-82
2021/10/05 13:48:48;;;;;;;2.60;1.48;;;;;;;;;;5059376;28;20187;-82
2021/10/05 13:51:13;;;;;;;2.90;2.15;;;;;;;;;;5074889;28;20300;-80
2021/10/05 13:53:38;;;;;;;3.90;1.90;;;;;;;;;;5061682;28;20185;-81
2021/10/05 13:56:04;;;;;;;4.38;2.38;;;;;;;;;;5053559;28;20174;-81
2021/10/05 13:58:29;;;;;;;1.83;1.33;;;;;;;;;;5056426;28;20174;-80
2021/10/05 14:00:54;;;;;;;2.78;1.40;;;;;;;;;;5055397;28;20696;-81
2021/10/05 14:03:20;;;;;;;2.80;1.75;;;;;;;;;;5051873;28;20204;-79
2021/10/05 14:05:45;;;;;;;3.10;1.27;;;;;;;;;;5037359;28;20228;-78
2021/10/05 14:08:10;;;;;;;1.40;1.30;;;;;;;;;;5035423;28;20178;-78
2021/10/05 14:10:35;;;;;;;2.95;1.20;;;;;;;;;;5038957;28;20230;-78
2021/10/05 14:13:00;;;;;;;3.75;1.33;;;;;;;;;;5058867;28;20235;-79
2021/10/05 14:15:26;;;;;;;1.33;1.20;;;;;;;;;;5035401;28;20185;-79
2021/10/05 14:17:51;;;;;;;3.03;1.20;;;;;;;;;;5054600;28;20193;-78
2021/10/05 14:20:16;;;;;;;2.80;1.27;;;;;;;;;;5056557;28;20185;-79
2021/10/05 14:22:41;;;;;;;1.50;1.08;;;;;;;;;;5043976;28;20204;-79
2021/10/05 14:25:07;;;;;;;1.67;0.98;;;;;;;;;;5050725;28;20185;-77
2021/10/05 14:27:32;;;;;;;2.05;1.13;;;;;;;;;;5057490;28;20177;-77
2021/10/05 14:29:58;;;;;;;4.70;1.35;;;;;;;;;;5061747;28;20185;-78
2021/10/05 14:32:23;;;;;;;3.08;2.05;;;;;;;;;;5056994;28;20258;-79
2021/10/05 14:34:49;;;;;;;4.18;1.73;;;;;;;;;;5036349;28;20607;-79
2021/10/05 14:37:14;;;;;;;2.00;1.80;;;;;;;;;;5054315;28;20178;-78